createdAt,value
2023-04-16T00:00:49.734Z,11.26
2023-04-16T00:01:49.775Z,11.26
2023-04-16T00:02:50.809Z,11.26
2023-04-16T00:03:50.852Z,11.26
2023-04-16T00:04:50.401Z,11.26
2023-04-16T00:05:50.371Z,11.26
2023-04-16T00:06:50.326Z,11.26
2023-04-16T00:07:50.606Z,11.26
2023-04-16T00:08:49.629Z,11.26
2023-04-16T00:09:49.652Z,11.26
2023-04-16T00:10:49.647Z,11.25
2023-04-16T00:11:49.638Z,11.25
2023-04-16T00:12:50.284Z,11.26
2023-04-16T00:13:50.280Z,11.26
2023-04-16T00:14:50.268Z,11.27
2023-04-16T00:15:50.523Z,11.27
2023-04-16T00:16:50.396Z,11.27
2023-04-16T00:17:50.254Z,11.28
2023-04-16T00:18:50.219Z,11.28
2023-04-16T00:19:50.215Z,11.29
2023-04-16T00:20:49.531Z,11.29
2023-04-16T00:21:50.189Z,11.30
2023-04-16T00:22:50.182Z,11.29
2023-04-16T00:23:49.485Z,11.30
2023-04-16T00:24:50.154Z,11.29
2023-04-16T00:25:50.148Z,11.29
2023-04-16T00:26:50.135Z,11.29
2023-04-16T00:27:49.462Z,11.28
2023-04-16T00:28:49.441Z,11.28
2023-04-16T00:29:49.432Z,11.27
2023-04-16T00:30:50.144Z,11.26
2023-04-16T00:31:50.080Z,11.27
2023-04-16T00:32:50.116Z,11.25
2023-04-16T00:33:50.058Z,11.25
2023-04-16T00:34:50.060Z,11.25
2023-04-16T00:35:49.376Z,11.25
2023-04-16T00:36:50.035Z,11.25
2023-04-16T00:37:50.009Z,11.26
2023-04-16T00:38:50.012Z,11.25
2023-04-16T00:39:49.322Z,11.26
2023-04-16T00:40:49.309Z,11.25
2023-04-16T00:41:49.295Z,11.25
2023-04-16T00:42:49.944Z,11.26
2023-04-16T00:43:49.958Z,11.26
2023-04-16T00:44:49.943Z,11.26
2023-04-16T00:45:49.938Z,11.26
2023-04-16T00:46:49.925Z,11.26
2023-04-16T00:47:49.258Z,11.26
2023-04-16T00:48:49.908Z,11.25
2023-04-16T00:49:49.201Z,11.25
2023-04-16T00:50:49.879Z,11.25
2023-04-16T00:51:49.180Z,11.24
2023-04-16T00:52:49.846Z,11.23
2023-04-16T00:53:49.857Z,11.23
2023-04-16T00:54:49.856Z,11.23
2023-04-16T00:55:49.825Z,11.22
2023-04-16T00:56:49.820Z,11.22
2023-04-16T00:57:49.139Z,11.23
2023-04-16T00:58:49.105Z,11.24
2023-04-16T00:59:49.787Z,11.24
2023-04-16T01:00:49.773Z,11.25
2023-04-16T01:01:49.834Z,11.25
2023-04-16T01:02:49.222Z,11.26
2023-04-16T01:03:50.043Z,11.27
2023-04-16T01:04:49.041Z,11.28
2023-04-16T01:05:49.726Z,11.28
2023-04-16T01:06:49.696Z,11.29
2023-04-16T01:07:49.698Z,11.29
2023-04-16T01:08:49.692Z,11.30
2023-04-16T01:09:49.680Z,11.30
2023-04-16T01:10:48.991Z,11.30
2023-04-16T01:11:49.000Z,11.30
2023-04-16T01:12:49.643Z,11.30
2023-04-16T01:13:49.633Z,11.31
2023-04-16T01:14:49.631Z,11.31
2023-04-16T01:15:49.064Z,11.32
2023-04-16T01:16:49.591Z,11.33
2023-04-16T01:17:50.866Z,11.33
2023-04-16T01:18:49.586Z,11.33
2023-04-16T01:19:49.583Z,11.33
2023-04-16T01:20:48.885Z,11.34
2023-04-16T01:21:49.535Z,11.34
2023-04-16T01:22:49.541Z,11.34
2023-04-16T01:23:48.854Z,11.34
2023-04-16T01:24:49.533Z,11.34
2023-04-16T01:25:48.831Z,11.36
2023-04-16T01:26:48.863Z,11.35
2023-04-16T01:27:49.486Z,11.36
2023-04-16T01:28:49.496Z,11.37
2023-04-16T01:29:48.787Z,11.36
2023-04-16T01:30:49.473Z,11.37
2023-04-16T01:31:49.544Z,11.37
2023-04-16T01:32:49.449Z,11.36
2023-04-16T01:33:49.425Z,11.37
2023-04-16T01:34:48.739Z,11.36
2023-04-16T01:35:49.411Z,11.37
2023-04-16T01:36:49.384Z,11.37
2023-04-16T01:37:49.387Z,11.37
2023-04-16T01:38:48.683Z,11.38
2023-04-16T01:39:48.676Z,11.38
2023-04-16T01:40:48.664Z,11.37
2023-04-16T01:41:48.715Z,11.39
2023-04-16T01:42:49.336Z,11.37
2023-04-16T01:43:49.325Z,11.38
2023-04-16T01:44:49.310Z,11.39
2023-04-16T01:45:48.643Z,11.38
2023-04-16T01:46:48.703Z,11.39
2023-04-16T01:47:49.318Z,11.38
2023-04-16T01:48:48.594Z,11.39
2023-04-16T01:49:49.276Z,11.39
2023-04-16T01:50:49.255Z,11.40
2023-04-16T01:51:48.561Z,11.39
2023-04-16T01:52:48.543Z,11.39
2023-04-16T01:53:49.214Z,11.39
2023-04-16T01:54:49.222Z,11.39
2023-04-16T01:55:49.193Z,11.39
2023-04-16T01:56:48.510Z,11.38
2023-04-16T01:57:48.509Z,11.38
2023-04-16T01:58:49.186Z,11.38
2023-04-16T01:59:49.164Z,11.38
2023-04-16T02:00:48.473Z,11.38
2023-04-16T02:01:49.168Z,11.38
2023-04-16T02:02:48.541Z,11.38
2023-04-16T02:03:49.362Z,11.38
2023-04-16T02:04:48.437Z,11.37
2023-04-16T02:05:48.421Z,11.36
2023-04-16T02:06:49.067Z,11.36
2023-04-16T02:07:49.078Z,11.35
2023-04-16T02:08:49.826Z,11.35
2023-04-16T02:09:49.062Z,11.35
2023-04-16T02:10:48.354Z,11.33
2023-04-16T02:11:48.366Z,11.34
2023-04-16T02:12:48.331Z,11.33
2023-04-16T02:13:49.005Z,11.33
2023-04-16T02:14:49.036Z,11.33
2023-04-16T02:15:49.011Z,11.34
2023-04-16T02:16:49.102Z,11.35
2023-04-16T02:17:48.998Z,11.35
2023-04-16T02:18:48.947Z,11.35
2023-04-16T02:19:48.246Z,11.35
2023-04-16T02:20:48.243Z,11.36
2023-04-16T02:21:48.241Z,11.35
2023-04-16T02:22:48.230Z,11.35
2023-04-16T02:23:48.889Z,11.35
2023-04-16T02:24:48.891Z,11.35
2023-04-16T02:25:48.908Z,11.35
2023-04-16T02:26:48.845Z,11.35
2023-04-16T02:27:48.871Z,11.35
2023-04-16T02:28:48.869Z,11.36
2023-04-16T02:29:48.829Z,11.36
2023-04-16T02:30:48.140Z,11.36
2023-04-16T02:31:48.858Z,11.35
2023-04-16T02:32:48.150Z,11.36
2023-04-16T02:33:48.120Z,11.36
2023-04-16T02:34:48.080Z,11.36
2023-04-16T02:35:48.761Z,11.36
2023-04-16T02:36:48.745Z,11.37
2023-04-16T02:37:49.051Z,11.37
2023-04-16T02:38:48.078Z,11.37
2023-04-16T02:39:48.725Z,11.36
2023-04-16T02:40:48.707Z,11.36
2023-04-16T02:41:48.678Z,11.34
2023-04-16T02:42:48.002Z,11.33
2023-04-16T02:43:48.960Z,11.32
2023-04-16T02:44:47.991Z,11.30
2023-04-16T02:45:48.680Z,11.28
2023-04-16T02:46:48.628Z,11.26
2023-04-16T02:47:48.011Z,11.24
2023-04-16T02:48:48.624Z,11.23
2023-04-16T02:49:48.619Z,11.20
2023-04-16T02:50:48.844Z,11.17
2023-04-16T02:51:48.871Z,11.15
2023-04-16T02:52:48.621Z,11.12
2023-04-16T02:53:48.571Z,11.08
2023-04-16T02:54:47.869Z,11.05
2023-04-16T02:55:47.870Z,11.02
2023-04-16T02:56:47.885Z,10.99
2023-04-16T02:57:48.536Z,10.96
2023-04-16T02:58:47.835Z,10.93
2023-04-16T02:59:48.775Z,10.91
2023-04-16T03:00:47.818Z,10.86
2023-04-16T03:01:48.022Z,10.83
2023-04-16T03:02:48.991Z,10.80
2023-04-16T03:03:48.498Z,10.77
2023-04-16T03:04:48.745Z,10.75
2023-04-16T03:05:48.446Z,10.73
2023-04-16T03:06:48.433Z,10.71
2023-04-16T03:07:47.764Z,10.71
2023-04-16T03:08:48.413Z,10.71
2023-04-16T03:09:47.723Z,10.72
2023-04-16T03:10:47.718Z,10.73
2023-04-16T03:11:47.701Z,10.74
2023-04-16T03:12:48.353Z,10.75
2023-04-16T03:13:48.363Z,10.76
2023-04-16T03:14:47.686Z,10.78
2023-04-16T03:15:47.715Z,10.79
2023-04-16T03:16:48.330Z,10.80
2023-04-16T03:17:48.322Z,10.82
2023-04-16T03:18:48.305Z,10.83
2023-04-16T03:19:47.635Z,10.84
2023-04-16T03:20:48.282Z,10.85
2023-04-16T03:21:48.531Z,10.86
2023-04-16T03:22:48.267Z,10.87
2023-04-16T03:23:48.254Z,10.89
2023-04-16T03:24:47.580Z,10.90
2023-04-16T03:25:48.244Z,10.91
2023-04-16T03:26:48.190Z,10.92
2023-04-16T03:27:47.553Z,10.93
2023-04-16T03:28:48.935Z,10.93
2023-04-16T03:29:48.197Z,10.94
2023-04-16T03:30:47.537Z,10.95
2023-04-16T03:31:47.512Z,10.95
2023-04-16T03:32:48.183Z,10.96
2023-04-16T03:33:48.152Z,10.97
2023-04-16T03:34:48.140Z,10.96
2023-04-16T03:35:48.142Z,10.99
2023-04-16T03:36:47.450Z,10.97
2023-04-16T03:37:48.109Z,10.97
2023-04-16T03:38:48.093Z,10.97
2023-04-16T03:39:48.081Z,10.97
2023-04-16T03:40:48.076Z,10.98
2023-04-16T03:41:48.042Z,10.98
2023-04-16T03:42:47.377Z,10.98
2023-04-16T03:43:48.050Z,10.98
2023-04-16T03:44:48.031Z,10.98
2023-04-16T03:45:48.023Z,10.99
2023-04-16T03:46:48.053Z,10.97
2023-04-16T03:47:47.402Z,10.97
2023-04-16T03:48:47.310Z,10.97
2023-04-16T03:49:47.978Z,10.96
2023-04-16T03:50:48.015Z,10.95
2023-04-16T03:51:47.940Z,10.94
2023-04-16T03:52:47.945Z,10.93
2023-04-16T03:53:47.274Z,10.92
2023-04-16T03:54:47.925Z,10.91
2023-04-16T03:55:47.229Z,10.92
2023-04-16T03:56:47.226Z,10.91
2023-04-16T03:57:47.892Z,10.91
2023-04-16T03:58:47.877Z,10.90
2023-04-16T03:59:47.870Z,10.90
2023-04-16T04:00:47.858Z,10.90
2023-04-16T04:01:47.915Z,10.90
2023-04-16T04:02:47.972Z,10.89
2023-04-16T04:03:48.047Z,10.89
2023-04-16T04:04:47.253Z,10.90
2023-04-16T04:05:47.157Z,10.88
2023-04-16T04:06:47.777Z,10.88
2023-04-16T04:07:47.784Z,10.88
2023-04-16T04:08:47.789Z,10.88
2023-04-16T04:09:47.768Z,10.88
2023-04-16T04:10:47.085Z,10.88
2023-04-16T04:11:47.078Z,10.87
2023-04-16T04:12:47.739Z,10.87
2023-04-16T04:13:47.036Z,10.86
2023-04-16T04:14:47.705Z,10.86
2023-04-16T04:15:47.040Z,10.85
2023-04-16T04:16:47.762Z,10.84
2023-04-16T04:17:47.696Z,10.84
2023-04-16T04:18:46.995Z,10.83
2023-04-16T04:20:00.299Z,10.83
2023-04-16T04:20:47.971Z,10.83
2023-04-16T04:21:46.960Z,10.82
2023-04-16T04:22:46.943Z,10.81
2023-04-16T04:23:46.927Z,10.80
2023-04-16T04:24:47.604Z,10.80
2023-04-16T04:25:46.978Z,10.79
2023-04-16T04:26:47.563Z,10.79
2023-04-16T04:27:46.893Z,10.78
2023-04-16T04:28:46.884Z,10.78
2023-04-16T04:29:47.554Z,10.77
2023-04-16T04:30:47.554Z,10.76
2023-04-16T04:31:47.596Z,10.76
2023-04-16T04:32:47.555Z,10.76
2023-04-16T04:33:47.508Z,10.75
2023-04-16T04:34:46.815Z,10.74
2023-04-16T04:35:47.486Z,10.72
2023-04-16T04:36:46.845Z,10.72
2023-04-16T04:37:47.464Z,10.70
2023-04-16T04:38:47.458Z,10.67
2023-04-16T04:39:46.761Z,10.66
2023-04-16T04:40:46.755Z,10.64
2023-04-16T04:41:47.419Z,10.63
2023-04-16T04:42:46.716Z,10.62
2023-04-16T04:43:47.411Z,10.60
2023-04-16T04:44:46.753Z,10.58
2023-04-16T04:45:46.733Z,10.55
2023-04-16T04:46:46.693Z,10.55
2023-04-16T04:47:47.387Z,10.54
2023-04-16T04:48:46.670Z,10.53
2023-04-16T04:49:46.652Z,10.51
2023-04-16T04:50:46.654Z,10.49
2023-04-16T04:51:46.648Z,10.48
2023-04-16T04:52:46.616Z,10.46
2023-04-16T04:53:47.291Z,10.45
2023-04-16T04:54:47.287Z,10.44
2023-04-16T04:55:49.293Z,10.43
2023-04-16T04:56:48.238Z,10.42
2023-04-16T04:57:46.591Z,10.41
2023-04-16T04:58:46.571Z,10.40
2023-04-16T04:59:47.221Z,10.40
2023-04-16T05:00:47.226Z,10.40
2023-04-16T05:01:46.516Z,10.39
2023-04-16T05:02:47.352Z,10.39
2023-04-16T05:03:46.584Z,10.39
2023-04-16T05:04:46.574Z,10.37
2023-04-16T05:05:47.160Z,10.37
2023-04-16T05:06:46.488Z,10.36
2023-04-16T05:07:47.139Z,10.37
2023-04-16T05:08:47.130Z,10.34
2023-04-16T05:09:47.117Z,10.31
2023-04-16T05:10:47.113Z,10.31
2023-04-16T05:11:47.075Z,10.29
2023-04-16T05:12:48.227Z,10.28
2023-04-16T05:13:47.093Z,10.28
2023-04-16T05:14:46.383Z,10.26
2023-04-16T05:15:47.066Z,10.25
2023-04-16T05:16:47.058Z,10.24
2023-04-16T05:17:46.436Z,10.23
2023-04-16T05:18:47.021Z,10.22
2023-04-16T05:19:46.324Z,10.20
2023-04-16T05:20:46.338Z,10.18
2023-04-16T05:21:46.305Z,10.17
2023-04-16T05:22:46.278Z,10.17
2023-04-16T05:23:46.295Z,10.16
2023-04-16T05:24:46.275Z,10.16
2023-04-16T05:25:46.261Z,10.15
2023-04-16T05:26:46.270Z,10.15
2023-04-16T05:27:46.927Z,10.15
2023-04-16T05:28:46.248Z,10.15
2023-04-16T05:29:46.227Z,10.15
2023-04-16T05:30:46.242Z,10.14
2023-04-16T05:31:46.877Z,10.14
2023-04-16T05:32:46.909Z,10.14
2023-04-16T05:33:46.869Z,10.14
2023-04-16T05:34:46.168Z,10.13
2023-04-16T05:35:46.824Z,10.13
2023-04-16T05:36:46.141Z,10.12
2023-04-16T05:37:46.160Z,10.12
2023-04-16T05:38:46.806Z,10.11
2023-04-16T05:39:46.797Z,10.10
2023-04-16T05:40:46.787Z,10.08
2023-04-16T05:41:46.758Z,10.07
2023-04-16T05:42:46.797Z,10.06
2023-04-16T05:43:46.753Z,10.06
2023-04-16T05:44:46.057Z,10.06
2023-04-16T05:45:46.783Z,10.07
2023-04-16T05:46:46.720Z,10.09
2023-04-16T05:47:46.769Z,10.09
2023-04-16T05:48:46.705Z,10.10
2023-04-16T05:49:45.998Z,10.11
2023-04-16T05:50:46.683Z,10.13
2023-04-16T05:51:47.012Z,10.15
2023-04-16T05:52:46.658Z,10.20
2023-04-16T05:53:46.655Z,10.24
2023-04-16T05:54:46.648Z,10.28
2023-04-16T05:55:45.954Z,10.32
2023-04-16T05:56:46.616Z,10.38
2023-04-16T05:57:46.611Z,10.40
2023-04-16T05:58:46.599Z,10.45
2023-04-16T05:59:45.902Z,10.52
2023-04-16T06:00:45.897Z,10.58
2023-04-16T06:01:45.897Z,10.62
2023-04-16T06:02:46.775Z,10.66
2023-04-16T06:03:45.938Z,10.68
2023-04-16T06:04:47.780Z,10.71
2023-04-16T06:05:46.599Z,10.73
2023-04-16T06:06:45.834Z,10.75
2023-04-16T06:07:46.496Z,10.75
2023-04-16T06:08:45.810Z,10.75
2023-04-16T06:09:46.474Z,10.74
2023-04-16T06:10:46.466Z,10.74
2023-04-16T06:11:45.778Z,10.73
2023-04-16T06:12:46.450Z,10.74
2023-04-16T06:13:45.765Z,10.75
2023-04-16T06:14:45.749Z,10.77
2023-04-16T06:15:46.426Z,10.79
2023-04-16T06:16:46.387Z,10.80
2023-04-16T06:17:46.435Z,10.83
2023-04-16T06:18:45.689Z,10.87
2023-04-16T06:19:46.374Z,10.91
2023-04-16T06:20:46.357Z,10.93
2023-04-16T06:21:45.692Z,10.97
2023-04-16T06:22:46.346Z,11.00
2023-04-16T06:23:46.326Z,11.02
2023-04-16T06:24:46.317Z,11.01
2023-04-16T06:25:46.566Z,11.02
2023-04-16T06:26:46.583Z,11.05
2023-04-16T06:27:46.557Z,11.10
2023-04-16T06:28:46.267Z,11.19
2023-04-16T06:29:46.269Z,11.26
2023-04-16T06:30:46.516Z,11.30
2023-04-16T06:31:46.249Z,11.37
2023-04-16T06:32:46.285Z,11.39
2023-04-16T06:33:45.544Z,11.45
2023-04-16T06:34:46.209Z,11.51
2023-04-16T06:35:46.195Z,11.57
2023-04-16T06:36:46.171Z,11.59
2023-04-16T06:37:45.480Z,11.65
2023-04-16T06:38:46.162Z,11.77
2023-04-16T06:39:45.471Z,11.83
2023-04-16T06:40:46.137Z,11.87
2023-04-16T06:41:45.485Z,11.99
2023-04-16T06:42:46.404Z,12.14
2023-04-16T06:43:45.427Z,12.22
2023-04-16T06:44:46.097Z,12.26
2023-04-16T06:45:46.390Z,12.29
2023-04-16T06:46:46.154Z,12.35
2023-04-16T06:47:46.126Z,12.37
2023-04-16T06:48:45.380Z,12.42
2023-04-16T06:49:46.047Z,12.49
2023-04-16T06:50:46.304Z,12.56
2023-04-16T06:51:46.278Z,12.66
2023-04-16T06:52:46.288Z,12.74
2023-04-16T06:53:45.997Z,12.82
2023-04-16T06:54:46.253Z,12.91
2023-04-16T06:55:46.244Z,12.96
2023-04-16T06:56:46.241Z,13.01
2023-04-16T06:57:46.224Z,13.06
2023-04-16T06:58:45.951Z,13.09
2023-04-16T06:59:45.936Z,13.09
2023-04-16T07:00:45.970Z,13.09
2023-04-16T07:01:45.931Z,13.10
2023-04-16T07:02:46.031Z,13.12
2023-04-16T07:03:45.429Z,13.13
2023-04-16T07:04:45.208Z,13.09
2023-04-16T07:05:45.857Z,13.08
2023-04-16T07:06:45.843Z,13.14
2023-04-16T07:07:45.900Z,13.20
2023-04-16T07:08:45.160Z,13.23
2023-04-16T07:09:45.150Z,13.25
2023-04-16T07:10:45.160Z,13.26
2023-04-16T07:11:45.146Z,13.29
2023-04-16T07:12:45.793Z,13.34
2023-04-16T07:13:45.122Z,13.36
2023-04-16T07:14:45.083Z,13.36
2023-04-16T07:15:45.085Z,13.39
2023-04-16T07:16:45.801Z,13.47
2023-04-16T07:17:45.118Z,13.51
2023-04-16T07:18:45.740Z,13.54
2023-04-16T07:19:45.722Z,13.59
2023-04-16T07:20:45.708Z,13.65
2023-04-16T07:21:45.681Z,13.71
2023-04-16T07:22:45.693Z,13.75
2023-04-16T07:23:45.675Z,13.79
2023-04-16T07:24:45.668Z,13.82
2023-04-16T07:25:46.048Z,13.87
2023-04-16T07:26:45.637Z,13.90
2023-04-16T07:27:44.966Z,13.94
2023-04-16T07:28:45.627Z,13.97
2023-04-16T07:29:45.614Z,14.00
2023-04-16T07:30:45.902Z,14.04
2023-04-16T07:31:45.609Z,14.09
2023-04-16T07:32:44.962Z,14.13
2023-04-16T07:33:44.910Z,14.14
2023-04-16T07:34:45.625Z,14.12
2023-04-16T07:35:45.898Z,14.16
2023-04-16T07:36:45.830Z,14.21
2023-04-16T07:37:48.914Z,14.22
2023-04-16T07:38:45.519Z,14.20
2023-04-16T07:39:44.833Z,14.16
2023-04-16T07:40:44.866Z,14.11
2023-04-16T07:41:45.493Z,14.07
2023-04-16T07:42:45.477Z,14.04
2023-04-16T07:43:45.466Z,14.05
2023-04-16T07:44:45.455Z,14.06
2023-04-16T07:45:44.818Z,14.07
2023-04-16T07:46:47.364Z,14.04
2023-04-16T07:47:45.473Z,14.00
2023-04-16T07:48:45.418Z,13.95
2023-04-16T07:49:45.410Z,13.94
2023-04-16T07:50:44.737Z,13.92
2023-04-16T07:51:45.386Z,13.89
2023-04-16T07:52:45.590Z,13.89
2023-04-16T07:53:45.357Z,13.90
2023-04-16T07:54:45.354Z,13.92
2023-04-16T07:55:45.323Z,13.97
2023-04-16T07:56:44.643Z,14.03
2023-04-16T07:57:45.317Z,14.09
2023-04-16T07:58:44.640Z,14.16
2023-04-16T07:59:45.281Z,14.26
2023-04-16T08:00:44.605Z,14.37
2023-04-16T08:01:45.279Z,14.46
2023-04-16T08:02:44.933Z,14.55
2023-04-16T08:03:45.412Z,14.62
2023-04-16T08:04:45.460Z,14.70
2023-04-16T08:05:45.236Z,14.81
2023-04-16T08:06:45.222Z,14.97
2023-04-16T08:07:45.215Z,15.16
2023-04-16T08:08:44.537Z,15.29
2023-04-16T08:09:44.525Z,15.40
2023-04-16T08:10:45.213Z,15.55
2023-04-16T08:11:45.172Z,15.71
2023-04-16T08:12:44.520Z,15.84
2023-04-16T08:13:44.459Z,15.94
2023-04-16T08:14:44.475Z,16.07
2023-04-16T08:15:45.148Z,16.22
2023-04-16T08:16:45.245Z,16.40
2023-04-16T08:17:45.137Z,16.59
2023-04-16T08:18:44.415Z,16.72
2023-04-16T08:19:45.131Z,16.79
2023-04-16T08:20:44.398Z,16.81
2023-04-16T08:21:45.067Z,16.90
2023-04-16T08:22:44.476Z,17.04
2023-04-16T08:23:44.358Z,17.20
2023-04-16T08:24:45.016Z,17.32
2023-04-16T08:25:44.340Z,17.46
2023-04-16T08:26:45.015Z,17.59
2023-04-16T08:27:45.001Z,17.71
2023-04-16T08:28:44.306Z,17.81
2023-04-16T08:29:44.973Z,17.83
2023-04-16T08:30:44.980Z,17.93
2023-04-16T08:31:45.004Z,18.08
2023-04-16T08:32:44.368Z,18.20
2023-04-16T08:33:44.954Z,18.32
2023-04-16T08:34:44.914Z,18.45
2023-04-16T08:35:44.919Z,18.57
2023-04-16T08:36:44.900Z,18.63
2023-04-16T08:37:44.226Z,18.63
2023-04-16T08:38:44.218Z,18.71
2023-04-16T08:39:44.205Z,18.88
2023-04-16T08:40:44.858Z,19.09
2023-04-16T08:41:44.865Z,19.42
2023-04-16T08:42:44.152Z,19.70
2023-04-16T08:43:44.830Z,19.92
2023-04-16T08:44:44.791Z,20.18
2023-04-16T08:45:44.799Z,20.31
2023-04-16T08:46:44.879Z,20.49
2023-04-16T08:47:44.145Z,20.64
2023-04-16T08:48:44.768Z,20.84
2023-04-16T08:49:44.115Z,21.18
2023-04-16T08:50:44.749Z,21.44
2023-04-16T08:51:45.012Z,22.75
2023-04-16T08:52:44.044Z,23.75
2023-04-16T08:53:44.047Z,24.58
2023-04-16T08:54:44.041Z,25.37
2023-04-16T08:55:44.017Z,25.94
2023-04-16T08:56:44.681Z,26.30
2023-04-16T08:57:45.425Z,26.80
2023-04-16T08:58:44.665Z,26.85
2023-04-16T08:59:43.994Z,27.10
2023-04-16T09:00:44.641Z,27.67
2023-04-16T09:01:44.657Z,28.21
2023-04-16T09:02:44.904Z,28.53
2023-04-16T09:03:44.810Z,27.68
2023-04-16T09:04:45.019Z,27.07
2023-04-16T09:05:43.906Z,27.26
2023-04-16T09:06:43.898Z,27.49
2023-04-16T09:07:44.562Z,27.32
2023-04-16T09:08:44.558Z,26.85
2023-04-16T09:09:44.522Z,26.32
2023-04-16T09:10:44.531Z,25.79
2023-04-16T09:11:43.837Z,25.48
2023-04-16T09:12:43.839Z,25.54
2023-04-16T09:13:44.502Z,25.17
2023-04-16T09:14:44.469Z,24.70
2023-04-16T09:15:44.472Z,24.37
2023-04-16T09:16:44.533Z,24.24
2023-04-16T09:17:43.811Z,24.71
2023-04-16T09:18:43.775Z,24.69
2023-04-16T09:19:44.417Z,24.17
2023-04-16T09:20:43.773Z,23.68
2023-04-16T09:21:43.738Z,23.25
2023-04-16T09:22:44.396Z,22.85
2023-04-16T09:23:44.389Z,22.56
2023-04-16T09:24:44.364Z,22.35
2023-04-16T09:25:44.382Z,22.09
2023-04-16T09:26:44.365Z,21.79
2023-04-16T09:27:44.352Z,21.56
2023-04-16T09:28:44.350Z,21.41
2023-04-16T09:29:44.330Z,21.24
2023-04-16T09:30:43.656Z,21.10
2023-04-16T09:31:43.665Z,21.03
2023-04-16T09:32:44.313Z,20.94
2023-04-16T09:33:43.611Z,20.91
2023-04-16T09:34:44.256Z,20.94
2023-04-16T09:35:43.611Z,20.99
2023-04-16T09:36:44.253Z,21.06
2023-04-16T09:37:44.238Z,21.15
2023-04-16T09:38:44.235Z,21.21
2023-04-16T09:39:44.207Z,21.26
2023-04-16T09:40:44.207Z,21.30
2023-04-16T09:41:43.511Z,21.26
2023-04-16T09:42:44.188Z,21.23
2023-04-16T09:43:44.178Z,21.23
2023-04-16T09:44:44.151Z,21.27
2023-04-16T09:45:44.198Z,21.29
2023-04-16T09:46:43.472Z,21.33
2023-04-16T09:47:43.536Z,21.30
2023-04-16T09:48:43.448Z,21.29
2023-04-16T09:49:44.104Z,21.29
2023-04-16T09:50:43.421Z,21.29
2023-04-16T09:51:43.425Z,21.26
2023-04-16T09:52:43.414Z,21.29
2023-04-16T09:53:43.383Z,21.34
2023-04-16T09:54:43.397Z,21.36
2023-04-16T09:55:45.901Z,21.41
2023-04-16T09:56:43.350Z,21.45
2023-04-16T09:57:44.029Z,21.46
2023-04-16T09:58:43.332Z,21.44
2023-04-16T09:59:43.333Z,21.37
2023-04-16T10:00:44.009Z,21.31
2023-04-16T10:01:44.045Z,21.25
2023-04-16T10:02:43.369Z,21.19
2023-04-16T10:03:44.091Z,21.12
2023-04-16T10:04:43.306Z,21.01
2023-04-16T10:05:43.258Z,20.86
2023-04-16T10:06:43.239Z,20.76
2023-04-16T10:07:43.919Z,20.69
2023-04-16T10:08:43.246Z,20.67
2023-04-16T10:09:43.873Z,20.73
2023-04-16T10:10:43.884Z,20.86
2023-04-16T10:11:43.191Z,21.00
2023-04-16T10:12:43.861Z,21.13
2023-04-16T10:13:45.101Z,21.35
2023-04-16T10:14:43.175Z,21.68
2023-04-16T10:15:43.157Z,21.96
2023-04-16T10:16:43.852Z,22.16
2023-04-16T10:17:43.851Z,22.34
2023-04-16T10:18:43.816Z,22.47
2023-04-16T10:19:43.116Z,22.51
2023-04-16T10:20:43.092Z,22.59
2023-04-16T10:21:43.086Z,22.54
2023-04-16T10:22:43.760Z,22.61
2023-04-16T10:23:43.774Z,22.77
2023-04-16T10:24:43.068Z,22.85
2023-04-16T10:25:43.764Z,22.69
2023-04-16T10:26:43.719Z,22.53
2023-04-16T10:27:43.012Z,22.61
2023-04-16T10:28:43.744Z,22.89
2023-04-16T10:29:43.970Z,23.06
2023-04-16T10:30:43.700Z,22.84
2023-04-16T10:31:43.652Z,22.93
2023-04-16T10:32:43.025Z,22.91
2023-04-16T10:33:43.657Z,22.58
2023-04-16T10:34:42.976Z,22.37
2023-04-16T10:35:43.611Z,22.15
2023-04-16T10:36:43.602Z,22.10
2023-04-16T10:37:43.587Z,21.97
2023-04-16T10:38:42.895Z,21.89
2023-04-16T10:39:42.913Z,21.82
2023-04-16T10:40:42.874Z,21.81
2023-04-16T10:41:42.873Z,21.71
2023-04-16T10:42:43.536Z,21.66
2023-04-16T10:43:43.576Z,21.72
2023-04-16T10:44:45.509Z,21.81
2023-04-16T10:45:44.762Z,21.88
2023-04-16T10:46:42.876Z,21.89
2023-04-16T10:47:43.582Z,21.93
2023-04-16T10:48:49.858Z,21.82
2023-04-16T10:49:45.248Z,21.72
2023-04-16T10:50:43.447Z,21.63
2023-04-16T10:51:42.754Z,21.53
2023-04-16T10:52:43.433Z,21.35
2023-04-16T10:53:43.417Z,21.17
2023-04-16T10:54:44.681Z,21.10
2023-04-16T10:55:42.704Z,21.10
2023-04-16T10:56:43.405Z,21.12
2023-04-16T10:57:43.388Z,21.02
2023-04-16T10:58:43.363Z,20.99
2023-04-16T10:59:42.692Z,21.02
2023-04-16T11:00:42.649Z,21.02
2023-04-16T11:01:42.782Z,21.06
2023-04-16T11:02:42.856Z,21.04
2023-04-16T11:03:43.467Z,21.00
2023-04-16T11:04:42.786Z,20.88
2023-04-16T11:05:44.554Z,20.69
2023-04-16T11:06:42.584Z,20.46
2023-04-16T11:07:42.570Z,20.28
2023-04-16T11:08:54.125Z,20.16
2023-04-16T11:09:45.023Z,20.15
2023-04-16T11:10:43.237Z,20.18
2023-04-16T11:11:43.978Z,20.23
2023-04-16T11:12:43.211Z,20.29
2023-04-16T11:13:43.598Z,20.35
2023-04-16T11:14:42.525Z,20.32
2023-04-16T11:15:43.190Z,20.25
2023-04-16T11:16:43.177Z,20.20
2023-04-16T11:17:43.204Z,20.10
2023-04-16T11:18:48.795Z,20.06
2023-04-16T11:19:44.891Z,20.08
2023-04-16T11:20:43.139Z,20.16
2023-04-16T11:21:43.111Z,20.30
2023-04-16T11:22:42.416Z,20.55
2023-04-16T11:23:43.129Z,20.76
2023-04-16T11:24:43.062Z,20.79
2023-04-16T11:25:42.381Z,20.70
2023-04-16T11:26:43.060Z,20.60
2023-04-16T11:27:43.043Z,20.48
2023-04-16T11:28:43.033Z,20.40
2023-04-16T11:29:44.561Z,20.31
2023-04-16T11:30:42.330Z,20.17
2023-04-16T11:31:43.029Z,19.94
2023-04-16T11:32:43.326Z,19.81
2023-04-16T11:33:42.984Z,19.78
2023-04-16T11:34:42.950Z,19.76
2023-04-16T11:35:42.965Z,19.73
2023-04-16T11:36:42.264Z,19.63
2023-04-16T11:37:42.935Z,19.44
2023-04-16T11:38:42.240Z,19.19
2023-04-16T11:39:42.896Z,18.95
2023-04-16T11:40:42.246Z,18.73
2023-04-16T11:41:42.214Z,18.55
2023-04-16T11:42:42.256Z,18.40
2023-04-16T11:43:43.141Z,18.34
2023-04-16T11:44:42.844Z,18.39
2023-04-16T11:45:42.174Z,18.48
2023-04-16T11:46:42.871Z,18.59
2023-04-16T11:47:43.138Z,18.75
2023-04-16T11:48:42.813Z,18.86
2023-04-16T11:49:42.790Z,18.97
2023-04-16T11:50:42.793Z,19.09
2023-04-16T11:51:42.787Z,19.25
2023-04-16T11:52:42.094Z,19.39
2023-04-16T11:53:42.078Z,19.46
2023-04-16T11:54:42.730Z,19.45
2023-04-16T11:55:42.054Z,19.41
2023-04-16T11:56:42.736Z,19.37
2023-04-16T11:57:42.721Z,19.33
2023-04-16T11:58:42.528Z,19.23
2023-04-16T12:00:01.935Z,19.14
2023-04-16T12:00:43.680Z,19.03
2023-04-16T12:01:42.721Z,18.92
2023-04-16T12:02:42.799Z,18.91
2023-04-16T12:03:42.986Z,18.93
2023-04-16T12:04:42.010Z,19.01
2023-04-16T12:05:41.961Z,19.13
2023-04-16T12:06:41.968Z,19.22
2023-04-16T12:07:42.614Z,19.26
2023-04-16T12:08:42.614Z,19.28
2023-04-16T12:09:42.594Z,19.28
2023-04-16T12:10:42.788Z,19.27
2023-04-16T12:11:41.877Z,19.31
2023-04-16T12:12:41.903Z,19.38
2023-04-16T12:13:41.868Z,19.41
2023-04-16T12:14:42.516Z,19.33
2023-04-16T12:15:42.738Z,19.23
2023-04-16T12:16:41.875Z,19.15
2023-04-16T12:17:41.902Z,19.05
2023-04-16T12:18:42.766Z,18.95
2023-04-16T12:19:41.840Z,18.83
2023-04-16T12:20:41.799Z,18.73
2023-04-16T12:21:42.464Z,18.63
2023-04-16T12:22:42.719Z,18.52
2023-04-16T12:23:42.713Z,18.45
2023-04-16T12:24:42.426Z,18.40
2023-04-16T12:25:42.420Z,18.35
2023-04-16T12:26:42.408Z,18.28
2023-04-16T12:27:42.404Z,18.22
2023-04-16T12:28:41.726Z,18.19
2023-04-16T12:29:41.714Z,18.18
2023-04-16T12:30:42.418Z,18.20
2023-04-16T12:31:42.363Z,18.28
2023-04-16T12:32:42.389Z,18.36
2023-04-16T12:33:42.606Z,18.43
2023-04-16T12:34:48.319Z,18.51
2023-04-16T12:35:42.640Z,18.58
2023-04-16T12:36:42.303Z,18.60
2023-04-16T12:37:42.571Z,18.58
2023-04-16T12:38:42.285Z,18.52
2023-04-16T12:39:41.605Z,18.47
2023-04-16T12:40:41.574Z,18.42
2023-04-16T12:41:42.509Z,18.45
2023-04-16T12:42:42.251Z,18.54
2023-04-16T12:43:42.236Z,18.66
2023-04-16T12:44:42.201Z,18.76
2023-04-16T12:45:42.213Z,18.81
2023-04-16T12:46:41.637Z,18.84
2023-04-16T12:47:41.567Z,18.86
2023-04-16T12:48:42.175Z,18.86
2023-04-16T12:49:41.514Z,18.86
2023-04-16T12:50:42.162Z,18.89
2023-04-16T12:51:42.159Z,18.94
2023-04-16T12:52:42.139Z,19.04